createdAt,value
2022-10-11T00:01:59.225Z,9.13
2022-10-11T00:04:26.021Z,9.20
2022-10-11T00:06:52.658Z,9.16
2022-10-11T00:09:19.427Z,9.13
2022-10-11T00:11:46.006Z,9.05
2022-10-11T00:14:12.703Z,9.06
2022-10-11T00:16:41.650Z,9.04
2022-10-11T00:19:08.325Z,9.05
2022-10-11T00:21:36.691Z,9.11
2022-10-11T00:24:04.416Z,9.22
2022-10-11T00:26:31.088Z,9.17
2022-10-11T00:28:57.767Z,9.17
2022-10-11T00:31:24.804Z,9.17
2022-10-11T00:33:53.767Z,9.20
2022-10-11T00:36:21.711Z,9.15
2022-10-11T00:38:48.440Z,9.13
2022-10-11T00:41:16.279Z,9.16
2022-10-11T00:43:44.410Z,9.04
2022-10-11T00:46:14.061Z,9.01
2022-10-11T00:48:55.347Z,8.95
2022-10-11T00:51:58.693Z,8.96
2022-10-11T00:54:27.247Z,8.99
2022-10-11T00:56:58.711Z,8.96
2022-10-11T00:59:29.034Z,8.91
2022-10-11T01:01:55.851Z,8.96
2022-10-11T01:04:22.731Z,8.98
2022-10-11T01:06:50.610Z,8.99
2022-10-11T01:09:20.150Z,8.97
2022-10-11T01:11:48.659Z,9.03
2022-10-11T01:14:37.434Z,9.02
2022-10-11T01:17:18.913Z,9.02
2022-10-11T01:20:18.788Z,8.99
2022-10-11T01:23:07.302Z,9.02
2022-10-11T01:25:42.932Z,8.95
2022-10-11T01:28:45.068Z,8.96
2022-10-11T01:31:20.828Z,8.91
2022-10-11T01:34:02.006Z,8.91
2022-10-11T01:37:05.842Z,8.92
2022-10-11T01:39:48.555Z,8.97
2022-10-11T01:42:18.722Z,8.97
2022-10-11T01:44:48.192Z,8.99
2022-10-11T01:47:22.682Z,8.98
2022-10-11T01:49:57.728Z,8.99
2022-10-11T01:52:27.230Z,8.97
2022-10-11T01:55:09.544Z,9.00
2022-10-11T01:57:39.283Z,9.06
2022-10-11T02:00:18.308Z,9.04
2022-10-11T02:03:04.981Z,9.06
2022-10-11T02:05:43.184Z,9.13
2022-10-11T02:08:31.625Z,9.15
2022-10-11T02:11:01.162Z,9.20
2022-10-11T02:13:47.303Z,9.22
2022-10-11T02:16:19.870Z,9.23
2022-10-11T02:18:51.218Z,9.24
2022-10-11T02:21:20.808Z,9.23
2022-10-11T02:23:53.886Z,9.25
2022-10-11T02:26:23.389Z,9.34
2022-10-11T02:28:53.028Z,9.40
2022-10-11T02:31:21.722Z,9.46
2022-10-11T02:33:56.426Z,9.44
2022-10-11T02:36:36.641Z,9.45
2022-10-11T02:39:09.727Z,9.49
2022-10-11T02:41:41.010Z,9.49
2022-10-11T02:44:18.952Z,9.47
2022-10-11T02:46:47.479Z,9.46
2022-10-11T02:49:16.163Z,9.46
2022-10-11T02:51:43.003Z,9.43
2022-10-11T02:54:09.734Z,9.45
2022-10-11T02:56:36.643Z,9.43
2022-10-11T02:59:03.562Z,9.44
2022-10-11T03:01:30.611Z,9.40
2022-10-11T03:03:57.639Z,9.39
2022-10-11T03:06:26.316Z,9.38
2022-10-11T03:08:53.158Z,9.37
2022-10-11T03:11:20.283Z,9.29
2022-10-11T03:13:47.080Z,9.27
2022-10-11T03:16:14.696Z,9.26
2022-10-11T03:18:41.538Z,9.21
2022-10-11T03:21:08.180Z,9.23
2022-10-11T03:23:34.791Z,9.21
2022-10-11T03:26:04.410Z,9.24
2022-10-11T03:28:31.469Z,9.19
2022-10-11T03:30:58.139Z,9.13
2022-10-11T03:33:25.031Z,9.11
2022-10-11T03:35:53.181Z,9.12
2022-10-11T03:38:21.951Z,9.12
2022-10-11T03:40:48.619Z,9.11
2022-10-11T03:43:15.717Z,9.09
2022-10-11T03:45:42.448Z,9.10
2022-10-11T03:48:09.459Z,9.03
2022-10-11T03:50:36.707Z,9.04
2022-10-11T03:53:04.271Z,9.07
2022-10-11T03:55:31.039Z,9.08
2022-10-11T03:57:58.113Z,9.14
2022-10-11T04:00:24.903Z,9.17
2022-10-11T04:02:51.550Z,9.20
2022-10-11T04:05:18.469Z,9.24
2022-10-11T04:07:45.104Z,9.27
2022-10-11T04:10:12.030Z,9.35
2022-10-11T04:12:39.208Z,9.36
2022-10-11T04:15:06.980Z,9.41
2022-10-11T04:17:34.144Z,9.43
2022-10-11T04:20:00.859Z,9.47
2022-10-11T04:22:27.504Z,9.47
2022-10-11T04:24:54.178Z,9.46
2022-10-11T04:27:20.879Z,9.53
2022-10-11T04:29:47.531Z,9.56
2022-10-11T04:32:14.321Z,9.71
2022-10-11T04:34:41.946Z,9.64
2022-10-11T04:37:08.636Z,9.56
2022-10-11T04:39:35.515Z,9.52
2022-10-11T04:42:02.228Z,9.57
2022-10-11T04:44:28.944Z,9.54
2022-10-11T04:46:55.685Z,9.56
2022-10-11T04:49:23.306Z,9.55
2022-10-11T04:51:49.935Z,9.61
2022-10-11T04:54:16.575Z,9.62
2022-10-11T04:56:43.815Z,9.63
2022-10-11T04:59:10.826Z,9.67
2022-10-11T05:01:37.666Z,9.71
2022-10-11T05:04:04.385Z,9.73
2022-10-11T05:06:31.225Z,9.75
2022-10-11T05:08:57.812Z,9.81
2022-10-11T05:11:24.992Z,9.79
2022-10-11T05:13:51.798Z,9.84
2022-10-11T05:16:18.959Z,9.83
2022-10-11T05:18:45.619Z,9.82
2022-10-11T05:21:24.820Z,9.82
2022-10-11T05:23:52.991Z,9.83
2022-10-11T05:26:20.467Z,9.90
2022-10-11T05:28:48.106Z,9.94
2022-10-11T05:31:15.235Z,9.99
2022-10-11T05:33:42.902Z,10.05
2022-10-11T05:36:10.260Z,10.11
2022-10-11T05:38:37.148Z,10.15
2022-10-11T05:41:05.435Z,10.18
2022-10-11T05:43:32.786Z,10.24
2022-10-11T05:45:59.484Z,10.28
2022-10-11T05:48:26.841Z,10.31
2022-10-11T05:50:58.348Z,10.36
2022-10-11T05:53:24.976Z,10.40
2022-10-11T05:55:51.829Z,10.50
2022-10-11T05:58:18.804Z,10.65
2022-10-11T06:00:45.916Z,10.63
2022-10-11T06:03:14.261Z,10.63
2022-10-11T06:05:41.216Z,10.61
2022-10-11T06:08:09.886Z,10.63
2022-10-11T06:10:38.290Z,10.67
2022-10-11T06:13:05.650Z,10.67
2022-10-11T06:15:33.119Z,10.71
2022-10-11T06:17:59.846Z,10.74
2022-10-11T06:20:27.297Z,10.73
2022-10-11T06:22:54.018Z,10.72
2022-10-11T06:25:21.139Z,10.75
2022-10-11T06:27:47.793Z,10.75
2022-10-11T06:30:15.338Z,10.81
2022-10-11T06:32:41.985Z,10.82
2022-10-11T06:35:09.191Z,10.89
2022-10-11T06:37:36.057Z,10.94
2022-10-11T06:40:03.185Z,11.02
2022-10-11T06:42:29.939Z,11.12
2022-10-11T06:44:56.917Z,11.22
2022-10-11T06:47:23.625Z,11.37
2022-10-11T06:49:50.261Z,11.53
2022-10-11T06:52:16.934Z,11.66
2022-10-11T06:54:45.097Z,11.79
2022-10-11T06:57:12.619Z,12.05
2022-10-11T06:59:39.617Z,12.28
2022-10-11T07:02:06.884Z,12.52
2022-10-11T07:04:34.118Z,12.72
2022-10-11T07:07:01.356Z,12.82
2022-10-11T07:09:28.171Z,12.92
2022-10-11T07:11:54.937Z,13.09
2022-10-11T07:14:21.901Z,13.27
2022-10-11T07:16:48.549Z,13.54
2022-10-11T07:19:15.205Z,13.74
2022-10-11T07:21:41.872Z,14.09
2022-10-11T07:24:08.993Z,14.14
2022-10-11T07:26:38.496Z,14.43
2022-10-11T07:29:08.732Z,14.90
2022-10-11T07:31:38.659Z,15.31
2022-10-11T07:34:05.370Z,15.55
2022-10-11T07:36:32.248Z,16.00
2022-10-11T07:38:59.054Z,16.43
2022-10-11T07:41:25.889Z,16.58
2022-10-11T07:43:54.930Z,16.71
2022-10-11T07:46:22.525Z,17.01
2022-10-11T07:48:50.436Z,17.21
2022-10-11T07:51:21.050Z,17.89
2022-10-11T07:53:50.623Z,18.02
2022-10-11T07:56:20.685Z,17.83
2022-10-11T07:58:53.250Z,18.59
2022-10-11T08:01:21.275Z,19.77
2022-10-11T08:03:49.059Z,19.50
2022-10-11T08:06:19.282Z,18.69
2022-10-11T08:08:46.537Z,18.55
2022-10-11T08:11:24.622Z,18.01
2022-10-11T08:13:52.001Z,17.98
2022-10-11T08:16:18.684Z,18.09
2022-10-11T08:18:45.922Z,17.59
2022-10-11T08:21:15.727Z,17.43
2022-10-11T08:23:42.388Z,17.30
2022-10-11T08:26:11.297Z,17.33
2022-10-11T08:28:38.469Z,17.23
2022-10-11T08:31:05.756Z,16.63
2022-10-11T08:33:32.876Z,16.61
2022-10-11T08:36:04.930Z,16.71
2022-10-11T08:38:32.768Z,16.85
2022-10-11T08:41:00.924Z,16.90
2022-10-11T08:43:53.070Z,17.01
2022-10-11T08:46:26.436Z,17.05
2022-10-11T08:48:54.394Z,17.39
2022-10-11T08:51:27.169Z,18.05
2022-10-11T08:54:20.247Z,18.38
2022-10-11T08:56:47.393Z,18.26
2022-10-11T08:59:33.964Z,18.21
2022-10-11T09:02:26.339Z,18.42
2022-10-11T09:04:55.748Z,18.64
2022-10-11T09:07:34.554Z,18.45
2022-10-11T09:10:04.303Z,18.58
2022-10-11T09:13:31.121Z,18.71
2022-10-11T09:16:10.405Z,18.32
2022-10-11T09:19:04.493Z,17.72
2022-10-11T09:21:43.265Z,17.68
2022-10-11T09:24:19.094Z,17.71
2022-10-11T09:26:56.615Z,18.01
2022-10-11T09:29:47.837Z,18.09
2022-10-11T09:32:17.936Z,17.99
2022-10-11T09:34:44.816Z,18.10
2022-10-11T09:37:30.618Z,18.46
2022-10-11T09:40:06.777Z,18.43
2022-10-11T09:42:33.792Z,18.94
2022-10-11T09:45:01.199Z,20.44
2022-10-11T09:47:30.479Z,20.54
2022-10-11T09:50:16.793Z,20.39
2022-10-11T09:52:55.857Z,20.01
2022-10-11T09:55:50.929Z,21.90
2022-10-11T09:58:31.547Z,24.02
2022-10-11T10:01:08.014Z,26.30
2022-10-11T10:03:46.127Z,26.42
2022-10-11T10:06:27.872Z,27.95
2022-10-11T10:08:55.562Z,28.99
2022-10-11T10:11:22.714Z,30.04
2022-10-11T10:13:56.032Z,30.96
2022-10-11T10:16:34.232Z,30.70
2022-10-11T10:19:02.077Z,31.50
2022-10-11T10:21:34.140Z,32.37
2022-10-11T10:24:05.369Z,32.78
2022-10-11T10:26:32.582Z,31.80
2022-10-11T10:29:08.248Z,30.19
2022-10-11T10:35:02.682Z,31.25
2022-10-11T10:37:39.705Z,31.69
2022-10-11T10:40:14.474Z,30.87
2022-10-11T10:42:41.450Z,30.37
2022-10-11T10:45:17.434Z,29.44
2022-10-11T10:48:23.473Z,30.37
2022-10-11T10:51:00.824Z,31.33
2022-10-11T10:53:33.748Z,31.40
2022-10-11T10:56:11.218Z,31.18
2022-10-11T10:59:25.522Z,31.59
2022-10-11T11:02:39.676Z,31.52
2022-10-11T11:05:46.775Z,31.77
2022-10-11T11:08:35.006Z,30.97
2022-10-11T11:11:40.152Z,32.22
2022-10-11T11:14:07.278Z,32.68
2022-10-11T11:16:54.631Z,32.26
2022-10-11T11:19:38.442Z,32.21
2022-10-11T11:22:50.192Z,32.27
2022-10-11T11:25:22.862Z,31.62
2022-10-11T11:28:17.484Z,31.57
2022-10-11T11:30:59.522Z,31.88
2022-10-11T11:33:49.681Z,32.73
2022-10-11T11:36:35.631Z,33.06
2022-10-11T11:39:05.073Z,33.26
2022-10-11T11:41:43.585Z,32.83
2022-10-11T11:44:16.266Z,32.86
2022-10-11T11:46:51.553Z,32.63
2022-10-11T11:49:25.204Z,32.39
2022-10-11T11:51:55.813Z,32.75
2022-10-11T11:54:47.174Z,32.74
2022-10-11T11:57:49.884Z,33.13
2022-10-11T12:00:23.085Z,33.00
2022-10-11T12:03:01.910Z,32.97
2022-10-11T12:05:36.436Z,32.65
2022-10-11T12:08:26.038Z,33.34
2022-10-11T12:11:01.424Z,33.59
2022-10-11T12:13:37.112Z,33.35
2022-10-11T12:16:04.752Z,33.00
2022-10-11T12:18:35.642Z,32.43
2022-10-11T12:21:16.895Z,32.88
2022-10-11T12:23:47.084Z,33.69
2022-10-11T12:26:32.499Z,33.56
2022-10-11T12:29:07.614Z,33.72
2022-10-11T12:31:36.732Z,32.82
2022-10-11T12:34:09.713Z,33.59
2022-10-11T12:36:38.326Z,33.22
2022-10-11T12:39:19.937Z,33.37
2022-10-11T12:41:53.871Z,32.47
2022-10-11T12:44:28.818Z,33.36
2022-10-11T12:46:55.458Z,34.02
2022-10-11T12:49:24.695Z,33.41
2022-10-11T12:52:01.475Z,32.96
2022-10-11T12:54:37.407Z,32.88
2022-10-11T12:57:29.224Z,32.45
2022-10-11T13:00:16.312Z,32.06
2022-10-11T13:02:43.604Z,32.28
2022-10-11T13:05:31.663Z,32.10
2022-10-11T13:08:04.424Z,32.83
2022-10-11T13:10:39.517Z,32.43
2022-10-11T13:13:15.974Z,33.00
2022-10-11T13:15:51.849Z,32.30
2022-10-11T13:18:22.844Z,32.24
2022-10-11T13:20:49.765Z,32.15
2022-10-11T13:23:25.716Z,31.57
2022-10-11T13:25:54.181Z,31.95
2022-10-11T13:28:23.637Z,31.43
2022-10-11T13:30:56.164Z,31.49
2022-10-11T13:33:26.879Z,31.43
2022-10-11T13:35:53.993Z,31.34
2022-10-11T13:38:26.731Z,31.40
2022-10-11T13:40:56.135Z,31.82
2022-10-11T13:43:27.531Z,31.15
2022-10-11T13:45:57.129Z,31.20
2022-10-11T13:48:28.166Z,31.39
2022-10-11T13:51:28.754Z,31.36
2022-10-11T13:54:07.777Z,30.25
2022-10-11T13:56:51.494Z,29.85
2022-10-11T13:59:23.777Z,30.08
2022-10-11T14:01:57.614Z,30.10
2022-10-11T14:04:29.535Z,28.69
2022-10-11T14:07:02.751Z,29.05
2022-10-11T14:09:37.041Z,29.07
2022-10-11T14:12:28.551Z,29.59
2022-10-11T14:14:55.589Z,28.96
2022-10-11T14:17:32.879Z,29.20
2022-10-11T14:20:14.451Z,28.66
2022-10-11T14:22:41.511Z,28.37
2022-10-11T14:25:08.590Z,27.65
2022-10-11T14:27:36.912Z,27.52
2022-10-11T14:30:31.845Z,27.32
2022-10-11T14:33:01.539Z,26.77
2022-10-11T14:35:31.122Z,26.13
2022-10-11T14:37:58.451Z,25.33
2022-10-11T14:40:29.888Z,24.63
2022-10-11T14:42:57.164Z,24.75
2022-10-11T14:45:24.399Z,24.98
2022-10-11T14:47:52.129Z,24.88
2022-10-11T14:50:30.417Z,24.75
2022-10-11T14:52:58.054Z,24.80
2022-10-11T14:55:25.257Z,24.75
2022-10-11T14:57:52.266Z,24.31
2022-10-11T15:00:27.677Z,24.01
2022-10-11T15:02:55.868Z,23.70
2022-10-11T15:05:28.679Z,23.14
2022-10-11T15:07:58.531Z,22.60
2022-10-11T15:10:33.733Z,21.87
2022-10-11T15:13:01.169Z,21.49
2022-10-11T15:15:32.859Z,20.79
2022-10-11T15:18:00.481Z,20.59
2022-10-11T15:20:38.395Z,20.15
2022-10-11T15:23:07.951Z,19.83
2022-10-11T15:25:37.914Z,19.45
2022-10-11T15:28:06.104Z,19.12
2022-10-11T15:30:41.075Z,18.92
2022-10-11T15:33:09.234Z,18.65
2022-10-11T15:35:35.974Z,18.53
2022-10-11T15:38:03.182Z,18.41
2022-10-11T15:40:36.047Z,18.29
2022-10-11T15:43:03.953Z,17.96
2022-10-11T15:45:31.415Z,17.77
2022-10-11T15:47:58.660Z,17.60
2022-10-11T15:50:36.769Z,17.41
2022-10-11T15:53:05.272Z,17.33
2022-10-11T15:55:35.501Z,17.10
2022-10-11T15:58:02.570Z,17.06
2022-10-11T16:00:30.663Z,16.95
2022-10-11T16:02:59.035Z,16.71
2022-10-11T16:05:28.498Z,16.51
2022-10-11T16:07:55.489Z,16.36
2022-10-11T16:10:22.638Z,16.27
2022-10-11T16:12:49.633Z,16.20
2022-10-11T16:15:17.108Z,16.25
2022-10-11T16:17:45.384Z,16.26
2022-10-11T16:20:13.669Z,16.16
2022-10-11T16:22:41.396Z,16.11
2022-10-11T16:25:08.319Z,16.10
2022-10-11T16:27:35.752Z,16.13
2022-10-11T16:30:02.952Z,16.06
2022-10-11T16:32:33.435Z,16.04
2022-10-11T16:35:00.451Z,16.01
2022-10-11T16:37:27.413Z,15.91
2022-10-11T16:39:54.284Z,15.86
2022-10-11T16:42:21.034Z,15.85
2022-10-11T16:44:47.698Z,15.80
2022-10-11T16:47:15.815Z,15.71
2022-10-11T16:49:42.918Z,15.65
2022-10-11T16:52:14.110Z,15.64
2022-10-11T16:54:47.814Z,15.60
2022-10-11T16:57:16.217Z,15.63
2022-10-11T16:59:43.394Z,15.62
2022-10-11T17:02:27.634Z,15.59
2022-10-11T17:04:58.753Z,15.61
2022-10-11T17:07:26.342Z,15.62
2022-10-11T17:09:53.279Z,15.60
2022-10-11T17:12:23.667Z,15.55
2022-10-11T17:14:51.598Z,15.63
2022-10-11T17:17:19.410Z,15.70
2022-10-11T17:19:47.782Z,15.83
2022-10-11T17:22:18.294Z,15.93
2022-10-11T17:24:47.634Z,15.90
2022-10-11T17:27:14.595Z,15.93
2022-10-11T17:29:41.584Z,15.88
2022-10-11T17:32:08.707Z,15.85
2022-10-11T17:34:35.703Z,15.85
2022-10-11T17:37:02.652Z,15.76
2022-10-11T17:39:29.496Z,15.80
2022-10-11T17:41:56.204Z,15.78
2022-10-11T17:44:23.037Z,15.80
2022-10-11T17:46:50.327Z,15.75
2022-10-11T17:49:17.047Z,15.72
2022-10-11T17:51:44.193Z,15.65
2022-10-11T17:54:13.087Z,15.55
2022-10-11T17:56:43.073Z,15.52
2022-10-11T17:59:16.898Z,15.57
2022-10-11T18:01:43.778Z,15.48
2022-10-11T18:04:16.522Z,15.47
2022-10-11T18:06:46.294Z,15.39
2022-10-11T18:09:15.304Z,15.41
2022-10-11T18:11:42.589Z,15.41
2022-10-11T18:14:10.028Z,15.41
2022-10-11T18:16:38.631Z,15.37
2022-10-11T18:19:10.084Z,15.29
2022-10-11T18:21:38.007Z,15.26
2022-10-11T18:24:12.832Z,15.30
2022-10-11T18:26:39.962Z,15.52
2022-10-11T18:29:07.503Z,15.38
2022-10-11T18:31:35.363Z,15.22
2022-10-11T18:34:04.065Z,15.08
2022-10-11T18:36:32.478Z,15.07
2022-10-11T18:39:02.431Z,15.06
2022-10-11T18:41:32.126Z,15.02
2022-10-11T18:44:02.434Z,14.87
2022-10-11T18:46:30.160Z,14.81
2022-10-11T18:48:58.360Z,14.78
2022-10-11T18:51:26.928Z,14.78
2022-10-11T18:53:55.323Z,14.79
2022-10-11T18:56:24.814Z,14.78
2022-10-11T18:58:53.662Z,14.88
2022-10-11T19:01:26.399Z,14.73
2022-10-11T19:03:56.716Z,14.70
2022-10-11T19:06:27.437Z,14.67
2022-10-11T19:09:03.870Z,14.60
2022-10-11T19:11:32.543Z,14.65
2022-10-11T19:14:02.638Z,14.67
2022-10-11T19:16:30.629Z,14.72
2022-10-11T19:18:57.476Z,14.78
2022-10-11T19:21:24.346Z,14.77
2022-10-11T19:23:51.950Z,14.79
2022-10-11T19:26:24.319Z,14.72
2022-10-11T19:28:56.707Z,14.69
2022-10-11T19:31:25.439Z,14.70
2022-10-11T19:33:52.694Z,14.68
2022-10-11T19:36:20.159Z,14.75
2022-10-11T19:38:48.757Z,14.78
2022-10-11T19:41:18.125Z,14.78
2022-10-11T19:43:46.379Z,14.75
2022-10-11T19:46:20.265Z,14.78
2022-10-11T19:48:51.570Z,14.75
2022-10-11T19:51:23.792Z,14.74
2022-10-11T19:54:00.252Z,14.67
2022-10-11T19:56:31.340Z,14.66
2022-10-11T19:58:58.390Z,14.60
2022-10-11T20:01:27.488Z,14.59
2022-10-11T20:03:56.774Z,14.60
2022-10-11T20:06:25.347Z,14.65
2022-10-11T20:09:10.335Z,14.74
2022-10-11T20:11:39.503Z,14.70
2022-10-11T20:14:06.216Z,14.68
2022-10-11T20:16:33.221Z,14.72
2022-10-11T20:19:00.312Z,14.68
2022-10-11T20:21:29.771Z,14.71
2022-10-11T20:24:02.490Z,14.62
2022-10-11T20:26:30.773Z,14.54
2022-10-11T20:28:58.265Z,14.53
2022-10-11T20:31:34.581Z,14.51
2022-10-11T20:34:15.421Z,14.49
2022-10-11T20:36:48.904Z,14.45
2022-10-11T20:39:16.437Z,14.42
2022-10-11T20:41:44.038Z,14.41
2022-10-11T20:44:13.306Z,14.47
2022-10-11T20:46:40.203Z,14.48
2022-10-11T20:49:10.394Z,14.49
2022-10-11T20:51:39.736Z,14.39
2022-10-11T20:54:06.665Z,14.31
2022-10-11T20:56:34.326Z,14.41
2022-10-11T20:59:01.927Z,14.39
2022-10-11T21:01:40.682Z,14.43
2022-10-11T21:04:10.285Z,14.41
2022-10-11T21:06:37.404Z,14.36
2022-10-11T21:09:04.413Z,14.42
2022-10-11T21:11:33.478Z,14.34
2022-10-11T21:14:03.419Z,14.29
2022-10-11T21:16:31.005Z,14.28
2022-10-11T21:18:59.494Z,14.33
2022-10-11T21:21:27.566Z,14.36
2022-10-11T21:23:59.609Z,14.26
2022-10-11T21:26:27.586Z,14.21
2022-10-11T21:28:54.915Z,14.21
2022-10-11T21:31:22.472Z,14.11
2022-10-11T21:33:49.905Z,14.11
2022-10-11T21:36:18.063Z,14.08
2022-10-11T21:38:45.036Z,14.02
2022-10-11T21:41:15.639Z,13.94
2022-10-11T21:43:42.674Z,13.81
2022-10-11T21:46:15.893Z,13.75
2022-10-11T21:48:43.246Z,13.65
2022-10-11T21:51:23.698Z,13.60
2022-10-11T21:53:51.208Z,13.52
2022-10-11T21:56:18.107Z,13.52
2022-10-11T21:58:49.346Z,13.43
2022-10-11T22:01:17.729Z,13.35
2022-10-11T22:03:45.819Z,13.34
2022-10-11T22:06:31.521Z,13.37
2022-10-11T22:08:58.311Z,13.35
2022-10-11T22:11:25.503Z,13.42
2022-10-11T22:13:52.641Z,13.39
2022-10-11T22:16:20.546Z,13.40
2022-10-11T22:18:47.469Z,13.48
2022-10-11T22:21:21.522Z,13.54
2022-10-11T22:23:50.321Z,13.56
2022-10-11T22:26:26.804Z,13.58
2022-10-11T22:28:53.557Z,13.61
2022-10-11T22:31:22.350Z,13.62
2022-10-11T22:33:53.005Z,13.68
2022-10-11T22:36:20.270Z,13.68
2022-10-11T22:38:47.324Z,13.68
2022-10-11T22:41:14.260Z,13.65
2022-10-11T22:43:41.110Z,13.69
2022-10-11T22:46:08.701Z,13.68
2022-10-11T22:48:35.508Z,13.66
2022-10-11T22:51:03.654Z,13.63
2022-10-11T22:53:30.994Z,13.63
2022-10-11T22:55:58.412Z,13.64
2022-10-11T22:58:25.654Z,13.68
2022-10-11T23:00:52.568Z,13.70
2022-10-11T23:03:20.046Z,13.72
2022-10-11T23:05:57.818Z,13.72
2022-10-11T23:08:25.466Z,13.67
2022-10-11T23:10:52.891Z,13.71
2022-10-11T23:13:20.235Z,13.69
2022-10-11T23:15:46.955Z,13.69
2022-10-11T23:18:16.531Z,13.65
2022-10-11T23:20:43.732Z,13.59
2022-10-11T23:23:10.567Z,13.56
2022-10-11T23:25:37.418Z,13.51
2022-10-11T23:28:04.511Z,13.46
2022-10-11T23:30:31.453Z,13.51
2022-10-11T23:32:58.276Z,13.47
2022-10-11T23:35:25.305Z,13.49
2022-10-11T23:37:53.707Z,13.47
2022-10-11T23:40:20.897Z,13.53
2022-10-11T23:42:47.665Z,13.60
2022-10-11T23:45:14.706Z,13.59
2022-10-11T23:47:41.356Z,13.62
2022-10-11T23:50:09.227Z,13.61
2022-10-11T23:52:36.336Z,13.63
2022-10-11T23:55:03.821Z,13.65
2022-10-11T23:57:30.406Z,13.65
2022-10-11T23:59:57.486Z,13.63
